createdAt,value
2023-04-01T00:01:17.544Z,2.47
2023-04-01T00:03:44.521Z,2.20
2023-04-01T00:06:14.173Z,2.30
2023-04-01T00:08:40.853Z,2.22
2023-04-01T00:11:07.333Z,2.72
2023-04-01T00:13:33.775Z,2.70
2023-04-01T00:16:00.530Z,2.20
2023-04-01T00:18:27.114Z,2.08
2023-04-01T00:20:53.939Z,2.15
2023-04-01T00:23:21.599Z,2.40
2023-04-01T00:25:49.134Z,2.10
2023-04-01T00:28:17.987Z,2.00
2023-04-01T00:30:44.479Z,2.15
2023-04-01T00:33:11.597Z,2.17
2023-04-01T00:35:38.420Z,2.50
2023-04-01T00:38:04.979Z,1.50
2023-04-01T00:40:34.425Z,1.60
2023-04-01T00:43:01.191Z,1.67
2023-04-01T00:45:39.654Z,1.52
2023-04-01T00:48:09.643Z,1.42
2023-04-01T00:50:36.917Z,1.40
2023-04-01T00:53:04.021Z,1.23
2023-04-01T00:55:33.364Z,1.20
2023-04-01T00:58:01.061Z,1.27
2023-04-01T01:00:27.510Z,1.17
2023-04-01T01:02:54.024Z,1.08
2023-04-01T01:05:27.980Z,1.05
2023-04-01T01:08:05.314Z,0.90
2023-04-01T01:10:34.864Z,1.15
2023-04-01T01:13:17.680Z,1.13
2023-04-01T01:15:51.016Z,1.10
2023-04-01T01:18:35.246Z,1.40
2023-04-01T01:21:20.905Z,0.88
2023-04-01T01:23:47.243Z,0.85
2023-04-01T01:26:34.992Z,1.23
2023-04-01T01:29:32.283Z,0.80
2023-04-01T01:32:06.943Z,1.20
2023-04-01T01:34:52.968Z,1.10
2023-04-01T01:37:22.073Z,1.10
2023-04-01T01:39:52.953Z,0.90
2023-04-01T01:42:20.393Z,0.98
2023-04-01T01:44:48.007Z,1.10
2023-04-01T01:47:15.402Z,1.48
2023-04-01T01:49:42.916Z,1.23
2023-04-01T01:52:09.286Z,1.00
2023-04-01T01:54:35.755Z,0.80
2023-04-01T01:57:10.059Z,0.70
2023-04-01T01:59:38.324Z,1.10
2023-04-01T02:02:08.953Z,0.77
2023-04-01T02:04:37.304Z,0.90
2023-04-01T02:07:06.802Z,0.90
2023-04-01T02:09:35.102Z,0.80
2023-04-01T02:12:09.449Z,0.95
2023-04-01T02:14:49.743Z,1.00
2023-04-01T02:17:18.931Z,0.77
2023-04-01T02:19:51.497Z,0.80
2023-04-01T02:22:21.838Z,0.90
2023-04-01T02:24:50.376Z,0.60
2023-04-01T02:27:17.080Z,0.75
2023-04-01T02:29:43.533Z,0.73
2023-04-01T02:32:10.497Z,0.80
2023-04-01T02:34:37.446Z,0.90
2023-04-01T02:37:03.965Z,0.70
2023-04-01T02:39:30.673Z,0.60
2023-04-01T02:41:57.081Z,0.82
2023-04-01T02:44:23.625Z,0.73
2023-04-01T02:46:50.518Z,0.70
2023-04-01T02:49:17.016Z,0.60
2023-04-01T02:51:43.431Z,0.70
2023-04-01T02:54:09.834Z,0.80
2023-04-01T02:56:36.299Z,0.80
2023-04-01T02:59:03.049Z,0.70
2023-04-01T03:01:29.625Z,0.60
2023-04-01T03:03:56.294Z,0.88
2023-04-01T03:06:22.726Z,0.60
2023-04-01T03:08:49.218Z,0.95
2023-04-01T03:11:15.764Z,0.60
2023-04-01T03:13:42.272Z,0.63
2023-04-01T03:16:08.713Z,0.73
2023-04-01T03:18:35.230Z,0.70
2023-04-01T03:21:18.903Z,0.65
2023-04-01T03:23:45.413Z,0.60
2023-04-01T03:26:12.014Z,0.52
2023-04-01T03:28:38.384Z,0.52
2023-04-01T03:31:04.961Z,0.88
2023-04-01T03:33:32.319Z,0.60
2023-04-01T03:35:59.197Z,0.50
2023-04-01T03:38:25.723Z,0.70
2023-04-01T03:40:52.136Z,0.60
2023-04-01T03:43:18.613Z,0.55
2023-04-01T03:45:49.174Z,0.50
2023-04-01T03:48:16.071Z,0.70
2023-04-01T03:50:42.860Z,0.60
2023-04-01T03:53:09.607Z,0.80
2023-04-01T03:55:39.335Z,0.70
2023-04-01T03:58:06.561Z,0.60
2023-04-01T04:00:33.026Z,0.50
2023-04-01T04:02:59.807Z,0.43
2023-04-01T04:05:26.815Z,0.40
2023-04-01T04:07:53.927Z,0.60
2023-04-01T04:10:20.629Z,0.82
2023-04-01T04:12:47.121Z,0.60
2023-04-01T04:15:13.559Z,0.45
2023-04-01T04:17:40.012Z,0.60
2023-04-01T04:20:06.928Z,0.47
2023-04-01T04:22:33.354Z,0.50
2023-04-01T04:24:59.741Z,0.50
2023-04-01T04:27:26.239Z,0.73
2023-04-01T04:29:52.702Z,0.70
2023-04-01T04:32:19.146Z,0.60
2023-04-01T04:34:45.588Z,0.43
2023-04-01T04:37:11.962Z,0.60
2023-04-01T04:39:38.433Z,0.60
2023-04-01T04:42:04.960Z,0.50
2023-04-01T04:44:31.398Z,0.70
2023-04-01T04:46:58.593Z,0.60
2023-04-01T04:49:25.431Z,0.40
2023-04-01T04:51:53.294Z,0.70
2023-04-01T04:54:19.731Z,0.60
2023-04-01T04:56:46.187Z,0.82
2023-04-01T04:59:13.489Z,0.77
2023-04-01T05:01:40.109Z,0.55
2023-04-01T05:04:06.725Z,0.50
2023-04-01T05:06:33.157Z,0.65
2023-04-01T05:08:59.561Z,0.50
2023-04-01T05:11:27.065Z,0.68
2023-04-01T05:13:53.602Z,0.45
2023-04-01T05:16:20.870Z,0.60
2023-04-01T05:18:48.027Z,0.50
2023-04-01T05:21:15.702Z,0.43
2023-04-01T05:23:42.601Z,0.63
2023-04-01T05:26:11.996Z,0.57
2023-04-01T05:28:39.259Z,0.60
2023-04-01T05:31:07.022Z,0.47
2023-04-01T05:33:33.801Z,0.50
2023-04-01T05:36:07.840Z,0.60
2023-04-01T05:38:34.324Z,0.57
2023-04-01T05:41:02.598Z,0.38
2023-04-01T05:43:29.111Z,0.45
2023-04-01T05:45:55.857Z,0.70
2023-04-01T05:48:22.250Z,0.60
2023-04-01T05:50:48.668Z,0.50
2023-04-01T05:53:15.172Z,0.40
2023-04-01T05:55:41.582Z,0.50
2023-04-01T05:58:08.086Z,0.73
2023-04-01T06:00:34.505Z,0.30
2023-04-01T06:03:01.157Z,0.60
2023-04-01T06:05:34.622Z,0.60
2023-04-01T06:08:07.147Z,0.50
2023-04-01T06:11:01.001Z,0.63
2023-04-01T06:13:53.862Z,0.55
2023-04-01T06:19:00.238Z,0.60
2023-04-01T06:22:02.423Z,0.60
2023-04-01T06:24:55.119Z,0.40
2023-04-01T06:27:24.226Z,0.50
2023-04-01T06:29:56.636Z,0.50
2023-04-01T06:32:29.186Z,0.57
2023-04-01T06:35:14.215Z,0.57
2023-04-01T06:38:03.092Z,0.50
2023-04-01T06:40:55.164Z,0.32
2023-04-01T06:43:39.959Z,0.30
2023-04-01T06:46:31.206Z,0.52
2023-04-01T06:49:05.146Z,0.73
2023-04-01T06:51:44.307Z,0.60
2023-04-01T06:54:14.633Z,0.60
2023-04-01T06:56:43.825Z,0.45
2023-04-01T06:59:16.805Z,0.50
2023-04-01T07:01:47.258Z,0.60
2023-04-01T07:04:22.071Z,0.50
2023-04-01T07:06:54.421Z,0.50
2023-04-01T07:11:49.368Z,0.60
2023-04-01T07:14:21.017Z,0.63
2023-04-01T07:17:12.506Z,0.50
2023-04-01T07:19:58.449Z,0.47
2023-04-01T07:22:31.344Z,0.40
2023-04-01T07:24:59.077Z,0.50
2023-04-01T07:27:25.733Z,0.40
2023-04-01T07:29:52.235Z,0.50
2023-04-01T07:32:36.803Z,0.70
2023-04-01T07:35:10.132Z,0.60
2023-04-01T07:38:04.610Z,0.52
2023-04-01T07:40:53.193Z,0.50
2023-04-01T07:43:47.487Z,0.60
2023-04-01T07:46:31.840Z,0.60
2023-04-01T07:49:23.331Z,0.60
2023-04-01T07:52:01.405Z,0.55
2023-04-01T07:54:50.802Z,0.60
2023-04-01T07:57:31.030Z,0.68
2023-04-01T08:00:14.969Z,0.60
2023-04-01T08:03:20.184Z,0.50
2023-04-01T08:06:11.564Z,0.77
2023-04-01T08:08:50.953Z,0.82
2023-04-01T08:11:33.556Z,0.88
2023-04-01T08:14:03.536Z,0.65
2023-04-01T08:16:48.421Z,0.60
2023-04-01T08:19:32.167Z,0.73
2023-04-01T08:22:05.431Z,0.63
2023-04-01T08:24:47.940Z,0.60
2023-04-01T08:27:32.821Z,0.73
2023-04-01T08:30:17.743Z,0.70
2023-04-01T08:32:53.374Z,0.88
2023-04-01T08:35:38.593Z,0.60
2023-04-01T08:38:14.226Z,0.60
2023-04-01T08:40:55.766Z,0.50
2023-04-01T08:43:44.059Z,0.73
2023-04-01T08:46:33.801Z,0.60
2023-04-01T08:49:19.132Z,0.75
2023-04-01T08:51:54.864Z,0.75
2023-04-01T08:54:42.694Z,0.90
2023-04-01T08:57:16.678Z,0.90
2023-04-01T08:59:48.725Z,0.90
2023-04-01T09:02:41.278Z,1.10
2023-04-01T09:05:26.768Z,0.90
2023-04-01T09:08:22.950Z,1.00
2023-04-01T09:11:04.461Z,0.60
2023-04-01T09:14:09.425Z,1.10
2023-04-01T09:16:57.606Z,0.88
2023-04-01T09:20:08.005Z,0.90
2023-04-01T09:23:08.404Z,1.48
2023-04-01T09:26:12.427Z,0.90
2023-04-01T09:29:03.494Z,1.23
2023-04-01T09:31:39.154Z,0.90
2023-04-01T09:34:21.009Z,0.95
2023-04-01T09:36:56.949Z,0.90
2023-04-01T09:39:39.513Z,1.00
2023-04-01T09:42:27.778Z,0.90
2023-04-01T09:45:03.378Z,1.10
2023-04-01T09:47:48.323Z,1.00
2023-04-01T09:50:21.485Z,1.00
2023-04-01T09:52:50.649Z,0.85
2023-04-01T09:55:37.442Z,0.77
2023-04-01T09:58:22.522Z,1.00
2023-04-01T10:01:04.109Z,1.25
2023-04-01T10:03:37.850Z,0.98
2023-04-01T10:06:26.242Z,1.20
2023-04-01T10:09:11.040Z,1.10
2023-04-01T10:12:00.885Z,0.98
2023-04-01T10:15:11.144Z,0.93
2023-04-01T10:17:52.799Z,1.10
2023-04-01T10:20:28.386Z,1.20
2023-04-01T10:23:21.957Z,1.17
2023-04-01T10:26:06.899Z,0.90
2023-04-01T10:28:54.649Z,0.90
2023-04-01T10:31:39.331Z,1.00
2023-04-01T10:34:35.136Z,0.80
2023-04-01T10:37:42.881Z,0.75
2023-04-01T10:40:48.584Z,0.80
2023-04-01T10:43:39.064Z,0.77
2023-04-01T10:46:27.537Z,0.68
2023-04-01T10:49:32.634Z,0.80
2023-04-01T10:52:18.376Z,0.75
2023-04-01T10:54:48.984Z,0.70
2023-04-01T10:57:31.242Z,0.65
2023-04-01T11:00:08.741Z,0.70
2023-04-01T11:03:09.452Z,0.52
2023-04-01T11:05:53.288Z,0.80
2023-04-01T11:09:00.039Z,0.80
2023-04-01T11:11:35.974Z,0.60
2023-04-01T11:14:40.173Z,0.60
2023-04-01T11:17:39.532Z,0.60
2023-04-01T11:20:15.005Z,0.50
2023-04-01T11:23:02.711Z,0.75
2023-04-01T11:25:43.382Z,0.45
2023-04-01T11:28:23.682Z,0.30
2023-04-01T11:31:24.767Z,0.30
2023-04-01T11:33:55.404Z,0.50
2023-04-01T11:36:39.878Z,0.30
2023-04-01T11:39:14.694Z,0.32
2023-04-01T11:42:08.301Z,0.30
2023-04-01T11:44:41.102Z,0.30
2023-04-01T11:47:30.231Z,0.20
2023-04-01T11:50:23.213Z,0.30
2023-04-01T11:53:08.459Z,0.32
2023-04-01T11:58:32.589Z,0.60
2023-04-01T12:01:12.231Z,0.50
2023-04-01T12:03:46.012Z,0.50
2023-04-01T12:06:40.378Z,0.68
2023-04-01T12:09:20.131Z,0.60
2023-04-01T12:11:57.482Z,0.60
2023-04-01T12:14:53.320Z,0.80
2023-04-01T12:17:35.518Z,0.60
2023-04-01T12:20:39.773Z,0.60
2023-04-01T12:23:21.678Z,0.43
2023-04-01T12:26:05.986Z,0.40
2023-04-01T12:28:58.359Z,0.68
2023-04-01T12:31:37.847Z,0.70
2023-04-01T12:34:41.582Z,0.68
2023-04-01T12:37:16.545Z,0.80
2023-04-01T12:39:51.966Z,0.80
2023-04-01T12:42:44.649Z,0.70
2023-04-01T12:45:59.202Z,0.85
2023-04-01T12:49:02.628Z,0.85
2023-04-01T12:51:42.867Z,1.00
2023-04-01T12:54:23.154Z,1.00
2023-04-01T12:57:18.994Z,1.00
2023-04-01T13:00:03.912Z,1.10
2023-04-01T13:03:01.929Z,1.33
2023-04-01T13:06:01.968Z,1.00
2023-04-01T13:08:39.747Z,1.00
2023-04-01T13:11:21.862Z,0.90
2023-04-01T13:14:29.188Z,1.25
2023-04-01T13:17:11.119Z,1.50
2023-04-01T13:20:01.888Z,1.55
2023-04-01T13:22:46.931Z,1.40
2023-04-01T13:25:29.072Z,1.30
2023-04-01T13:28:07.946Z,0.80
2023-04-01T13:30:44.708Z,0.70
2023-04-01T13:33:29.538Z,0.52
2023-04-01T13:36:11.555Z,0.70
2023-04-01T13:39:06.481Z,1.23
2023-04-01T13:41:54.829Z,1.48
2023-04-01T13:44:40.050Z,2.22
2023-04-01T13:47:25.165Z,2.10
2023-04-01T13:49:59.373Z,1.35
2023-04-01T13:52:50.897Z,1.10
2023-04-01T13:55:22.286Z,1.05
2023-04-01T13:58:08.151Z,1.00
2023-04-01T14:00:56.752Z,1.30
2023-04-01T14:03:49.641Z,1.10
2023-04-01T14:09:01.120Z,1.02
2023-04-01T14:11:54.766Z,0.98
2023-04-01T14:14:52.264Z,1.20
2023-04-01T14:17:37.234Z,1.17
2023-04-01T14:20:23.380Z,1.33
2023-04-01T14:23:13.824Z,0.95
2023-04-01T14:25:56.779Z,1.08
2023-04-01T14:28:37.970Z,1.10
2023-04-01T14:31:22.426Z,1.10
2023-04-01T14:34:17.058Z,1.73
2023-04-01T14:36:58.677Z,1.75
2023-04-01T14:40:00.054Z,2.53
2023-04-01T14:42:29.192Z,2.10
2023-04-01T14:45:13.410Z,1.58
2023-04-01T14:48:07.204Z,1.40
2023-04-01T14:50:45.887Z,1.70
2023-04-01T14:53:25.326Z,3.95
2023-04-01T14:56:03.760Z,2.17
2023-04-01T14:58:47.847Z,2.78
2023-04-01T15:01:26.416Z,2.03
2023-04-01T15:03:56.132Z,1.40
2023-04-01T15:06:41.333Z,0.93
2023-04-01T15:09:23.037Z,0.90
2023-04-01T15:12:07.978Z,0.90
2023-04-01T15:14:56.602Z,0.82
2023-04-01T15:17:31.641Z,0.90
2023-04-01T15:20:00.868Z,0.90
2023-04-01T15:22:49.186Z,1.08
2023-04-01T15:25:44.333Z,1.50
2023-04-01T15:28:31.960Z,2.15
2023-04-01T15:31:19.778Z,1.20
2023-04-01T15:34:04.694Z,0.80
2023-04-01T15:36:35.835Z,0.70
2023-04-01T15:39:17.816Z,0.60
2023-04-01T15:42:09.281Z,0.90
2023-04-01T15:44:48.330Z,0.80
2023-04-01T15:47:27.111Z,0.73
2023-04-01T15:50:07.949Z,0.98
2023-04-01T15:52:51.411Z,0.90
2023-04-01T15:55:38.604Z,0.90
2023-04-01T15:58:28.996Z,0.88
2023-04-01T16:01:08.732Z,1.25
2023-04-01T16:03:41.344Z,1.02
2023-04-01T16:06:38.426Z,0.98
2023-04-01T16:09:37.097Z,2.10
2023-04-01T16:12:17.272Z,1.48
2023-04-01T16:15:23.705Z,1.80
2023-04-01T16:17:53.050Z,1.95
2023-04-01T16:20:23.727Z,2.15
2023-04-01T16:23:15.468Z,2.60
2023-04-01T16:25:46.497Z,2.35
2023-04-01T16:28:27.413Z,2.47
2023-04-01T16:31:13.644Z,2.58
2023-04-01T16:33:57.362Z,2.90
2023-04-01T16:36:46.577Z,2.60
2023-04-01T16:39:31.867Z,2.67
2023-04-01T16:42:07.485Z,2.15
2023-04-01T16:44:56.325Z,2.38
2023-04-01T16:47:29.507Z,2.53
2023-04-01T16:50:01.853Z,2.55
2023-04-01T16:52:37.987Z,2.53
2023-04-01T16:55:16.000Z,2.20
2023-04-01T16:57:48.335Z,2.20
2023-04-01T17:00:21.103Z,2.45
2023-04-01T17:02:53.795Z,2.20
2023-04-01T17:05:23.292Z,3.00
2023-04-01T17:08:17.787Z,2.17
2023-04-01T17:10:53.347Z,1.83
2023-04-01T17:13:28.708Z,1.70
2023-04-01T17:16:30.006Z,1.80
2023-04-01T17:19:07.910Z,2.00
2023-04-01T17:21:56.816Z,1.90
2023-04-01T17:24:38.529Z,2.33
2023-04-01T17:27:14.708Z,2.28
2023-04-01T17:29:41.164Z,1.95
2023-04-01T17:32:32.261Z,1.75
2023-04-01T17:35:18.928Z,1.45
2023-04-01T17:37:51.555Z,1.70
2023-04-01T17:40:53.759Z,1.42
2023-04-01T17:43:28.069Z,1.63
2023-04-01T17:45:57.156Z,1.50
2023-04-01T17:48:42.397Z,1.40
2023-04-01T17:51:24.610Z,1.40
2023-04-01T17:54:09.685Z,1.60
2023-04-01T17:56:52.067Z,1.55
2023-04-01T17:59:27.662Z,1.50
2023-04-01T18:02:31.603Z,1.58
2023-04-01T18:04:58.077Z,1.50
2023-04-01T18:07:47.917Z,1.80
2023-04-01T18:10:26.624Z,1.80
2023-04-01T18:12:53.009Z,2.00
2023-04-01T18:15:33.930Z,2.10
2023-04-01T18:18:33.350Z,1.40
2023-04-01T18:21:09.398Z,1.70
2023-04-01T18:23:59.156Z,1.48
2023-04-01T18:26:38.069Z,1.90
2023-04-01T18:29:37.565Z,1.60
2023-04-01T18:32:16.055Z,1.80
2023-04-01T18:34:55.639Z,1.80
2023-04-01T18:37:35.264Z,2.28
2023-04-01T18:40:13.808Z,2.72
2023-04-01T18:42:53.928Z,2.67
2023-04-01T18:45:41.606Z,2.45
2023-04-01T18:48:13.573Z,2.28
2023-04-01T18:50:48.849Z,2.15
2023-04-01T18:53:42.643Z,1.83
2023-04-01T18:56:12.558Z,1.80
2023-04-01T18:59:07.834Z,1.90
2023-04-01T19:01:42.930Z,1.80
2023-04-01T19:04:29.105Z,1.88
2023-04-01T19:06:58.676Z,1.67
2023-04-01T19:09:47.202Z,1.90
2023-04-01T19:12:29.957Z,2.10
2023-04-01T19:17:27.069Z,2.20
2023-04-01T19:20:15.474Z,2.30
2023-04-01T19:22:53.852Z,2.10
2023-04-01T19:25:40.101Z,2.03
2023-04-01T19:28:32.416Z,2.10
2023-04-01T19:31:37.670Z,2.10
2023-04-01T19:34:27.824Z,1.92
2023-04-01T19:37:10.814Z,2.00
2023-04-01T19:39:53.580Z,2.20
2023-04-01T19:42:41.542Z,2.10
2023-04-01T19:45:29.150Z,2.17
2023-04-01T19:48:07.063Z,2.28
2023-04-01T19:50:41.071Z,2.35
2023-04-01T19:53:16.437Z,2.50
2023-04-01T19:56:22.780Z,2.33
2023-04-01T19:59:10.514Z,2.28
2023-04-01T20:02:16.711Z,2.20
2023-04-01T20:04:52.505Z,2.38
2023-04-01T20:07:45.858Z,1.83
2023-04-01T20:10:22.276Z,1.98
2023-04-01T20:12:57.678Z,2.20
2023-04-01T20:16:01.355Z,2.70
2023-04-01T20:18:48.328Z,1.90
2023-04-01T20:21:42.504Z,2.10
2023-04-01T20:24:14.949Z,1.90
2023-04-01T20:29:38.482Z,1.70
2023-04-01T20:32:04.851Z,1.75
2023-04-01T20:34:41.924Z,2.00
2023-04-01T20:37:30.838Z,2.28
2023-04-01T20:40:31.646Z,2.10
2023-04-01T20:43:15.939Z,2.30
2023-04-01T20:46:00.020Z,2.85
2023-04-01T20:48:35.534Z,2.75
2023-04-01T20:51:07.307Z,2.75
2023-04-01T20:53:41.648Z,2.83
2023-04-01T20:56:17.197Z,2.83
2023-04-01T20:58:59.189Z,2.50
2023-04-01T21:01:42.126Z,2.80
2023-04-01T21:04:33.664Z,2.50
2023-04-01T21:07:10.986Z,2.70
2023-04-01T21:10:12.578Z,2.78
2023-04-01T21:13:12.574Z,2.80
2023-04-01T21:15:53.983Z,3.10
2023-04-01T21:18:40.567Z,3.10
2023-04-01T21:21:12.070Z,3.22
2023-04-01T21:24:00.776Z,2.50
2023-04-01T21:26:44.795Z,2.60
2023-04-01T21:29:53.129Z,2.35
2023-04-01T21:32:49.460Z,2.50
2023-04-01T21:35:33.062Z,2.60
2023-04-01T21:38:08.003Z,2.67
2023-04-01T21:40:57.741Z,2.97
2023-04-01T21:43:59.749Z,2.50
2023-04-01T21:46:37.388Z,2.88
2023-04-01T21:49:30.422Z,2.83
2023-04-01T21:52:35.876Z,2.83
2023-04-01T21:55:31.474Z,2.90
2023-04-01T21:58:11.895Z,2.97
2023-04-01T22:00:56.093Z,2.80
2023-04-01T22:03:44.090Z,2.90
2023-04-01T22:06:16.357Z,2.60
2023-04-01T22:08:49.557Z,2.67
2023-04-01T22:11:45.754Z,2.92
2023-04-01T22:14:21.212Z,3.10
2023-04-01T22:17:25.120Z,3.05
2023-04-01T22:20:12.654Z,2.95
2023-04-01T22:22:57.953Z,2.85
2023-04-01T22:25:30.239Z,3.42
2023-04-01T22:28:02.795Z,3.25
2023-04-01T22:30:33.977Z,3.00
2023-04-01T22:33:09.067Z,2.80
2023-04-01T22:35:56.749Z,3.35
2023-04-01T22:38:56.756Z,3.38
2023-04-01T22:41:29.355Z,3.30
2023-04-01T22:46:52.192Z,3.10
2023-04-01T22:49:23.769Z,2.85
2023-04-01T22:52:31.726Z,3.70
2023-04-01T22:55:05.230Z,3.08
2023-04-01T22:57:31.710Z,3.40
2023-04-01T23:00:25.948Z,3.33
2023-04-01T23:03:04.248Z,3.15
2023-04-01T23:05:31.391Z,3.13
2023-04-01T23:08:26.198Z,2.90
2023-04-01T23:10:55.988Z,3.35
2023-04-01T23:13:30.477Z,3.30
2023-04-01T23:15:57.163Z,3.30
2023-04-01T23:18:46.140Z,2.95
2023-04-01T23:21:24.869Z,3.40
2023-04-01T23:23:58.781Z,3.45
2023-04-01T23:26:43.521Z,3.20
2023-04-01T23:29:20.315Z,3.13
2023-04-01T23:31:47.323Z,3.25
2023-04-01T23:34:13.768Z,3.00
2023-04-01T23:36:46.313Z,3.15
2023-04-01T23:41:45.416Z,3.33
2023-04-01T23:44:14.026Z,3.30
2023-04-01T23:46:41.762Z,3.33
2023-04-01T23:49:14.998Z,2.83
2023-04-01T23:51:51.826Z,3.35
2023-04-01T23:54:33.925Z,3.10
2023-04-01T23:57:05.584Z,2.72
2023-04-01T23:59:35.910Z,3.70
